sensor_id;sensor_type;location;lat;lon;timestamp;pressure;altitude;pressure_sealevel;temperature;humidity
12868;BME280;33517;49.866;8.320;2022-09-14T00:00:48;99591.25;;;19.49;94.46
12868;BME280;33517;49.866;8.320;2022-09-14T00:03:40;99602.41;;;19.46;94.89
12868;BME280;33517;49.866;8.320;2022-09-14T00:06:33;99608.88;;;19.50;94.62
12868;BME280;33517;49.866;8.320;2022-09-14T00:09:25;99604.97;;;19.41;95.91
12868;BME280;33517;49.866;8.320;2022-09-14T00:12:17;99618.75;;;19.33;97.07
12868;BME280;33517;49.866;8.320;2022-09-14T00:15:09;99620.34;;;19.34;97.28
12868;BME280;33517;49.866;8.320;2022-09-14T00:18:03;99625.03;;;19.43;96.40
12868;BME280;33517;49.866;8.320;2022-09-14T00:20:58;99630.25;;;19.50;95.66
12868;BME280;33517;49.866;8.320;2022-09-14T00:23:50;99638.00;;;19.51;95.36
12868;BME280;33517;49.866;8.320;2022-09-14T00:26:42;99625.22;;;19.53;95.12
12868;BME280;33517;49.866;8.320;2022-09-14T00:29:34;99615.69;;;19.57;95.05
12868;BME280;33517;49.866;8.320;2022-09-14T00:32:26;99627.50;;;19.61;94.73
12868;BME280;33517;49.866;8.320;2022-09-14T00:35:19;99620.28;;;19.62;94.51
12868;BME280;33517;49.866;8.320;2022-09-14T00:38:11;99631.19;;;19.60;94.66
12868;BME280;33517;49.866;8.320;2022-09-14T00:41:05;99625.78;;;19.55;95.14
12868;BME280;33517;49.866;8.320;2022-09-14T00:43:58;99621.72;;;19.53;95.21
12868;BME280;33517;49.866;8.320;2022-09-14T00:46:53;99628.47;;;19.55;95.68
12868;BME280;33517;49.866;8.320;2022-09-14T00:49:45;99643.66;;;19.55;95.21
12868;BME280;33517;49.866;8.320;2022-09-14T00:52:41;99658.91;;;19.43;96.54
12868;BME280;33517;49.866;8.320;2022-09-14T00:55:34;99647.72;;;19.29;98.48
12868;BME280;33517;49.866;8.320;2022-09-14T00:58:26;99629.91;;;19.18;99.20
12868;BME280;33517;49.866;8.320;2022-09-14T01:01:18;99620.53;;;19.15;99.37
12868;BME280;33517;49.866;8.320;2022-09-14T01:04:10;99618.19;;;19.19;99.35
12868;BME280;33517;49.866;8.320;2022-09-14T01:07:07;99616.25;;;19.14;99.74
12868;BME280;33517;49.866;8.320;2022-09-14T01:10:10;99612.44;;;19.10;99.96
12868;BME280;33517;49.866;8.320;2022-09-14T01:13:15;99599.34;;;19.09;100.00
12868;BME280;33517;49.866;8.320;2022-09-14T01:16:16;99591.34;;;19.09;100.00
12868;BME280;33517;49.866;8.320;2022-09-14T01:19:16;99581.81;;;19.13;99.75
12868;BME280;33517;49.866;8.320;2022-09-14T01:22:17;99579.16;;;19.13;99.54
12868;BME280;33517;49.866;8.320;2022-09-14T01:25:30;99555.97;;;19.13;99.30
12868;BME280;33517;49.866;8.320;2022-09-14T01:28:31;99562.25;;;19.07;99.94
12868;BME280;33517;49.866;8.320;2022-09-14T01:31:29;99560.03;;;19.04;99.77
12868;BME280;33517;49.866;8.320;2022-09-14T01:34:29;99560.03;;;19.04;100.00
12868;BME280;33517;49.866;8.320;2022-09-14T01:37:25;99569.44;;;19.07;100.00
12868;BME280;33517;49.866;8.320;2022-09-14T01:40:22;99554.81;;;19.09;100.00
12868;BME280;33517;49.866;8.320;2022-09-14T01:43:21;99549.56;;;19.14;99.96
12868;BME280;33517;49.866;8.320;2022-09-14T01:46:19;99546.00;;;19.09;100.00
12868;BME280;33517;49.866;8.320;2022-09-14T01:49:15;99540.28;;;19.00;100.00
12868;BME280;33517;49.866;8.320;2022-09-14T01:52:11;99534.94;;;19.00;100.00
12868;BME280;33517;49.866;8.320;2022-09-14T01:55:10;99538.25;;;19.07;100.00
12868;BME280;33517;49.866;8.320;2022-09-14T01:58:06;99535.66;;;19.12;99.87
12868;BME280;33517;49.866;8.320;2022-09-14T02:01:01;99539.28;;;19.06;99.79
12868;BME280;33517;49.866;8.320;2022-09-14T02:04:00;99523.28;;;19.06;99.90
12868;BME280;33517;49.866;8.320;2022-09-14T02:06:53;99520.53;;;19.01;99.95
12868;BME280;33517;49.866;8.320;2022-09-14T02:09:47;99525.06;;;19.01;100.00
12868;BME280;33517;49.866;8.320;2022-09-14T02:12:41;99517.81;;;18.96;100.00
12868;BME280;33517;49.866;8.320;2022-09-14T02:15:34;99521.03;;;18.98;100.00
12868;BME280;33517;49.866;8.320;2022-09-14T02:18:26;99510.44;;;19.03;100.00
12868;BME280;33517;49.866;8.320;2022-09-14T02:21:23;99506.72;;;19.04;100.00
12868;BME280;33517;49.866;8.320;2022-09-14T02:24:16;99513.81;;;18.99;100.00
12868;BME280;33517;49.866;8.320;2022-09-14T02:27:08;99506.72;;;18.88;100.00
12868;BME280;33517;49.866;8.320;2022-09-14T02:30:00;99512.19;;;18.81;100.00
12868;BME280;33517;49.866;8.320;2022-09-14T02:32:59;99516.47;;;18.82;100.00
12868;BME280;33517;49.866;8.320;2022-09-14T02:35:54;99509.63;;;18.86;100.00
12868;BME280;33517;49.866;8.320;2022-09-14T02:38:52;99505.66;;;18.89;100.00
12868;BME280;33517;49.866;8.320;2022-09-14T02:41:49;99502.44;;;18.87;100.00
12868;BME280;33517;49.866;8.320;2022-09-14T02:44:47;99495.72;;;18.84;100.00
12868;BME280;33517;49.866;8.320;2022-09-14T02:47:50;99496.84;;;18.88;100.00
12868;BME280;33517;49.866;8.320;2022-09-14T02:50:50;99508.41;;;18.94;100.00
12868;BME280;33517;49.866;8.320;2022-09-14T02:53:49;99514.63;;;18.99;100.00
12868;BME280;33517;49.866;8.320;2022-09-14T02:56:43;99518.69;;;19.02;100.00
12868;BME280;33517;49.866;8.320;2022-09-14T02:59:35;99518.19;;;19.05;100.00
12868;BME280;33517;49.866;8.320;2022-09-14T03:02:27;99524.09;;;19.07;100.00
12868;BME280;33517;49.866;8.320;2022-09-14T03:05:20;99516.91;;;19.07;100.00
12868;BME280;33517;49.866;8.320;2022-09-14T03:08:12;99516.59;;;19.04;100.00
12868;BME280;33517;49.866;8.320;2022-09-14T03:11:05;99517.38;;;19.04;100.00
12868;BME280;33517;49.866;8.320;2022-09-14T03:13:58;99516.81;;;19.02;100.00
12868;BME280;33517;49.866;8.320;2022-09-14T03:16:49;99507.78;;;19.03;100.00
12868;BME280;33517;49.866;8.320;2022-09-14T03:19:41;99508.81;;;19.02;100.00
12868;BME280;33517;49.866;8.320;2022-09-14T03:22:33;99503.72;;;19.01;100.00
12868;BME280;33517;49.866;8.320;2022-09-14T03:25:25;99494.13;;;19.00;100.00
12868;BME280;33517;49.866;8.320;2022-09-14T03:28:19;99491.13;;;18.96;100.00
12868;BME280;33517;49.866;8.320;2022-09-14T03:31:11;99486.59;;;18.97;100.00
12868;BME280;33517;49.866;8.320;2022-09-14T03:34:03;99479.91;;;18.94;100.00
12868;BME280;33517;49.866;8.320;2022-09-14T03:36:55;99478.25;;;18.93;100.00
12868;BME280;33517;49.866;8.320;2022-09-14T03:39:47;99475.13;;;18.96;100.00
12868;BME280;33517;49.866;8.320;2022-09-14T03:42:40;99467.91;;;18.97;100.00
12868;BME280;33517;49.866;8.320;2022-09-14T03:45:35;99462.03;;;18.95;100.00
12868;BME280;33517;49.866;8.320;2022-09-14T03:48:28;99466.56;;;18.94;100.00
12868;BME280;33517;49.866;8.320;2022-09-14T03:51:20;99465.75;;;18.94;100.00
12868;BME280;33517;49.866;8.320;2022-09-14T03:54:12;99453.47;;;18.93;100.00
12868;BME280;33517;49.866;8.320;2022-09-14T03:57:04;99445.88;;;18.85;100.00
12868;BME280;33517;49.866;8.320;2022-09-14T03:59:57;99440.44;;;18.80;100.00
12868;BME280;33517;49.866;8.320;2022-09-14T04:02:50;99432.84;;;18.72;100.00
12868;BME280;33517;49.866;8.320;2022-09-14T04:05:42;99426.06;;;18.64;100.00
12868;BME280;33517;49.866;8.320;2022-09-14T04:08:37;99425.66;;;18.56;100.00
12868;BME280;33517;49.866;8.320;2022-09-14T04:11:29;99431.00;;;18.56;100.00
12868;BME280;33517;49.866;8.320;2022-09-14T04:14:23;99433.09;;;18.54;100.00
12868;BME280;33517;49.866;8.320;2022-09-14T04:17:15;99440.13;;;18.60;100.00
12868;BME280;33517;49.866;8.320;2022-09-14T04:20:09;99442.28;;;18.63;100.00
12868;BME280;33517;49.866;8.320;2022-09-14T04:23:01;99441.59;;;18.67;100.00
12868;BME280;33517;49.866;8.320;2022-09-14T04:25:53;99439.72;;;18.68;100.00
12868;BME280;33517;49.866;8.320;2022-09-14T04:28:45;99441.81;;;18.66;100.00
12868;BME280;33517;49.866;8.320;2022-09-14T04:31:37;99446.91;;;18.67;100.00
12868;BME280;33517;49.866;8.320;2022-09-14T04:34:29;99445.63;;;18.70;100.00
12868;BME280;33517;49.866;8.320;2022-09-14T04:37:22;99443.75;;;18.70;100.00
12868;BME280;33517;49.866;8.320;2022-09-14T04:40:14;99447.09;;;18.77;100.00
12868;BME280;33517;49.866;8.320;2022-09-14T04:43:06;99446.28;;;18.77;100.00
12868;BME280;33517;49.866;8.320;2022-09-14T04:46:00;99438.91;;;18.84;100.00
12868;BME280;33517;49.866;8.320;2022-09-14T04:48:53;99439.50;;;18.86;100.00
12868;BME280;33517;49.866;8.320;2022-09-14T04:51:45;99437.63;;;18.86;100.00
12868;BME280;33517;49.866;8.320;2022-09-14T04:54:38;99440.06;;;18.88;100.00
12868;BME280;33517;49.866;8.320;2022-09-14T04:57:30;99437.97;;;18.90;100.00
12868;BME280;33517;49.866;8.320;2022-09-14T05:00:22;99431.34;;;18.92;100.00
12868;BME280;33517;49.866;8.320;2022-09-14T05:03:14;99432.94;;;18.93;100.00
12868;BME280;33517;49.866;8.320;2022-09-14T05:06:07;99432.13;;;18.93;100.00
12868;BME280;33517;49.866;8.320;2022-09-14T05:09:01;99419.38;;;18.95;100.00
12868;BME280;33517;49.866;8.320;2022-09-14T05:11:54;99423.16;;;18.99;100.00
12868;BME280;33517;49.866;8.320;2022-09-14T05:14:46;99434.06;;;18.97;100.00
12868;BME280;33517;49.866;8.320;2022-09-14T05:17:38;99430.13;;;19.00;100.00
12868;BME280;33517;49.866;8.320;2022-09-14T05:20:30;99442.13;;;19.02;100.00
12868;BME280;33517;49.866;8.320;2022-09-14T05:23:22;99436.81;;;19.02;100.00
12868;BME280;33517;49.866;8.320;2022-09-14T05:26:14;99439.47;;;19.02;100.00
12868;BME280;33517;49.866;8.320;2022-09-14T05:29:11;99439.47;;;19.02;100.00
12868;BME280;33517;49.866;8.320;2022-09-14T05:32:03;99436.91;;;19.07;100.00
12868;BME280;33517;49.866;8.320;2022-09-14T05:34:55;99437.22;;;19.11;100.00
12868;BME280;33517;49.866;8.320;2022-09-14T05:37:47;99446.34;;;19.15;100.00
12868;BME280;33517;49.866;8.320;2022-09-14T05:40:39;99434.63;;;19.16;100.00
12868;BME280;33517;49.866;8.320;2022-09-14T05:43:31;99430.34;;;19.15;100.00
12868;BME280;33517;49.866;8.320;2022-09-14T05:46:24;99429.53;;;19.14;100.00
12868;BME280;33517;49.866;8.320;2022-09-14T05:49:16;99424.44;;;19.13;100.00
12868;BME280;33517;49.866;8.320;2022-09-14T05:52:08;99429.78;;;19.13;100.00
12868;BME280;33517;49.866;8.320;2022-09-14T05:55:00;99409.72;;;19.10;100.00
12868;BME280;33517;49.866;8.320;2022-09-14T05:57:52;99408.38;;;19.08;100.00
12868;BME280;33517;49.866;8.320;2022-09-14T06:00:44;99407.25;;;19.04;100.00
12868;BME280;33517;49.866;8.320;2022-09-14T06:03:37;99407.88;;;19.11;100.00
12868;BME280;33517;49.866;8.320;2022-09-14T06:06:30;99409.00;;;19.15;100.00
12868;BME280;33517;49.866;8.320;2022-09-14T06:09:22;99405.69;;;19.24;100.00
12868;BME280;33517;49.866;8.320;2022-09-14T06:12:14;99401.06;;;19.20;100.00
12868;BME280;33517;49.866;8.320;2022-09-14T06:15:07;99406.97;;;19.22;100.00
12868;BME280;33517;49.866;8.320;2022-09-14T06:18:00;99402.44;;;19.22;100.00
12868;BME280;33517;49.866;8.320;2022-09-14T06:20:53;99399.84;;;19.27;100.00
12868;BME280;33517;49.866;8.320;2022-09-14T06:23:46;99402.38;;;19.34;100.00
12868;BME280;33517;49.866;8.320;2022-09-14T06:26:38;99399.53;;;19.41;100.00
12868;BME280;33517;49.866;8.320;2022-09-14T06:29:30;99394.19;;;19.41;100.00
12868;BME280;33517;49.866;8.320;2022-09-14T06:32:22;99402.69;;;19.38;100.00
12868;BME280;33517;49.866;8.320;2022-09-14T06:35:14;99418.53;;;19.44;100.00
12868;BME280;33517;49.866;8.320;2022-09-14T06:38:07;99430.25;;;19.43;100.00
12868;BME280;33517;49.866;8.320;2022-09-14T06:41:01;99434.53;;;19.44;100.00
12868;BME280;33517;49.866;8.320;2022-09-14T06:43:55;99439.69;;;19.51;100.00
12868;BME280;33517;49.866;8.320;2022-09-14T06:46:47;99436.84;;;19.57;100.00
12868;BME280;33517;49.866;8.320;2022-09-14T06:49:39;99439.00;;;19.60;100.00
12868;BME280;33517;49.866;8.320;2022-09-14T06:52:31;99431.56;;;19.62;100.00
12868;BME280;33517;49.866;8.320;2022-09-14T06:55:24;99421.09;;;19.77;99.63
12868;BME280;33517;49.866;8.320;2022-09-14T06:58:17;99416.72;;;19.93;98.99
12868;BME280;33517;49.866;8.320;2022-09-14T07:01:10;99414.75;;;20.05;98.79
12868;BME280;33517;49.866;8.320;2022-09-14T07:04:03;99406.50;;;20.11;98.48
12868;BME280;33517;49.866;8.320;2022-09-14T07:06:56;99411.38;;;20.14;98.22
12868;BME280;33517;49.866;8.320;2022-09-14T07:09:47;99407.84;;;20.09;98.25
12868;BME280;33517;49.866;8.320;2022-09-14T07:12:41;99408.69;;;20.14;98.13
12868;BME280;33517;49.866;8.320;2022-09-14T07:15:33;99400.56;;;20.26;97.69
12868;BME280;33517;49.866;8.320;2022-09-14T07:18:25;99393.75;;;20.40;97.10
12868;BME280;33517;49.866;8.320;2022-09-14T07:21:22;99390.41;;;20.55;96.89
12868;BME280;33517;49.866;8.320;2022-09-14T07:24:15;99395.44;;;20.83;96.29
12868;BME280;33517;49.866;8.320;2022-09-14T07:27:07;99396.78;;;21.17;95.58
12868;BME280;33517;49.866;8.320;2022-09-14T07:30:00;99396.47;;;22.27;92.13
12868;BME280;33517;49.866;8.320;2022-09-14T07:32:52;99397.59;;;22.66;90.25
12868;BME280;33517;49.866;8.320;2022-09-14T07:35:43;99403.22;;;22.90;89.72
12868;BME280;33517;49.866;8.320;2022-09-14T07:38:35;99418.53;;;22.74;89.94
12868;BME280;33517;49.866;8.320;2022-09-14T07:41:29;99408.63;;;22.85;89.22
12868;BME280;33517;49.866;8.320;2022-09-14T07:44:21;99419.28;;;22.55;88.51
12868;BME280;33517;49.866;8.320;2022-09-14T07:47:15;99428.84;;;22.01;87.74
12868;BME280;33517;49.866;8.320;2022-09-14T07:50:07;99427.38;;;21.78;89.82
12868;BME280;33517;49.866;8.320;2022-09-14T07:52:59;99434.66;;;21.82;89.23
12868;BME280;33517;49.866;8.320;2022-09-14T07:55:51;99430.00;;;21.68;90.34
12868;BME280;33517;49.866;8.320;2022-09-14T07:58:43;99430.16;;;21.51;90.35
12868;BME280;33517;49.866;8.320;2022-09-14T08:01:35;99429.31;;;21.36;90.66
12868;BME280;33517;49.866;8.320;2022-09-14T08:04:28;99425.75;;;21.25;91.33
12868;BME280;33517;49.866;8.320;2022-09-14T08:07:20;99433.56;;;21.00;92.15
12868;BME280;33517;49.866;8.320;2022-09-14T08:10:12;99439.75;;;21.00;92.63
12868;BME280;33517;49.866;8.320;2022-09-14T08:13:04;99433.09;;;21.03;92.73
12868;BME280;33517;49.866;8.320;2022-09-14T08:15:56;99439.00;;;21.05;92.61
12868;BME280;33517;49.866;8.320;2022-09-14T08:18:53;99435.59;;;21.15;92.58
12868;BME280;33517;49.866;8.320;2022-09-14T08:21:47;99437.09;;;21.42;92.10
12868;BME280;33517;49.866;8.320;2022-09-14T08:24:39;99432.94;;;21.66;91.26
12868;BME280;33517;49.866;8.320;2022-09-14T08:27:32;99438.88;;;21.73;90.58
12868;BME280;33517;49.866;8.320;2022-09-14T08:30:23;99446.56;;;21.60;91.01
12868;BME280;33517;49.866;8.320;2022-09-14T08:33:16;99449.47;;;21.53;91.65
12868;BME280;33517;49.866;8.320;2022-09-14T08:36:09;99455.81;;;21.37;91.59
12868;BME280;33517;49.866;8.320;2022-09-14T08:39:04;99467.72;;;21.61;91.30
12868;BME280;33517;49.866;8.320;2022-09-14T08:41:58;99473.34;;;21.65;91.23
12868;BME280;33517;49.866;8.320;2022-09-14T08:44:54;99474.78;;;21.77;90.65
12868;BME280;33517;49.866;8.320;2022-09-14T08:47:47;99463.34;;;21.87;90.92
12868;BME280;33517;49.866;8.320;2022-09-14T08:50:39;99479.00;;;21.68;90.94
12868;BME280;33517;49.866;8.320;2022-09-14T08:53:34;99485.34;;;21.52;91.28
12868;BME280;33517;49.866;8.320;2022-09-14T08:56:31;99489.16;;;21.25;91.67
12868;BME280;33517;49.866;8.320;2022-09-14T08:59:32;99488.88;;;21.21;92.53
12868;BME280;33517;49.866;8.320;2022-09-14T09:02:39;99472.91;;;21.31;91.93
12868;BME280;33517;49.866;8.320;2022-09-14T09:05:36;99466.47;;;21.32;92.45
12868;BME280;33517;49.866;8.320;2022-09-14T09:08:35;99448.00;;;21.31;91.72
12868;BME280;33517;49.866;8.320;2022-09-14T09:11:35;99442.53;;;21.16;92.31
12868;BME280;33517;49.866;8.320;2022-09-14T09:14:32;99435.13;;;20.96;93.86
12868;BME280;33517;49.866;8.320;2022-09-14T09:17:29;99457.63;;;21.00;93.22
12868;BME280;33517;49.866;8.320;2022-09-14T09:20:23;99467.00;;;20.97;93.14
12868;BME280;33517;49.866;8.320;2022-09-14T09:23:19;99463.88;;;20.79;93.25
12868;BME280;33517;49.866;8.320;2022-09-14T09:26:15;99461.88;;;20.96;93.43
12868;BME280;33517;49.866;8.320;2022-09-14T09:29:11;99456.13;;;21.09;93.44
12868;BME280;33517;49.866;8.320;2022-09-14T09:32:05;99448.59;;;21.01;93.81
12868;BME280;33517;49.866;8.320;2022-09-14T09:34:58;99456.22;;;21.19;92.99
12868;BME280;33517;49.866;8.320;2022-09-14T09:37:50;99455.22;;;21.30;92.97
12868;BME280;33517;49.866;8.320;2022-09-14T09:40:45;99452.06;;;21.38;92.94
12868;BME280;33517;49.866;8.320;2022-09-14T09:43:56;99445.53;;;21.71;92.69
12868;BME280;33517;49.866;8.320;2022-09-14T09:46:52;99440.91;;;22.18;91.56
12868;BME280;33517;49.866;8.320;2022-09-14T09:49:45;99451.19;;;22.51;89.61
12868;BME280;33517;49.866;8.320;2022-09-14T09:52:37;99442.09;;;22.52;89.45
12868;BME280;33517;49.866;8.320;2022-09-14T09:55:34;99427.28;;;22.30;88.57
12868;BME280;33517;49.866;8.320;2022-09-14T09:58:30;99411.53;;;22.68;88.40
12868;BME280;33517;49.866;8.320;2022-09-14T10:01:26;99408.06;;;23.03;86.25
12868;BME280;33517;49.866;8.320;2022-09-14T10:04:21;99407.25;;;22.82;84.37
12868;BME280;33517;49.866;8.320;2022-09-14T10:07:18;99397.56;;;22.46;85.61
12868;BME280;33517;49.866;8.320;2022-09-14T10:10:14;99390.63;;;22.70;86.49
12868;BME280;33517;49.866;8.320;2022-09-14T10:13:17;99387.34;;;23.29;85.70
12868;BME280;33517;49.866;8.320;2022-09-14T10:16:14;99376.56;;;23.49;84.34
12868;BME280;33517;49.866;8.320;2022-09-14T10:19:13;99379.03;;;23.40;81.79
12868;BME280;33517;49.866;8.320;2022-09-14T10:22:19;99384.13;;;23.22;82.24
12868;BME280;33517;49.866;8.320;2022-09-14T10:25:21;99379.81;;;23.36;82.59
12868;BME280;33517;49.866;8.320;2022-09-14T10:28:20;99383.56;;;23.30;83.82
12868;BME280;33517;49.866;8.320;2022-09-14T10:31:17;99386.00;;;23.46;83.68
12868;BME280;33517;49.866;8.320;2022-09-14T10:34:16;99380.06;;;23.29;84.11
12868;BME280;33517;49.866;8.320;2022-09-14T10:37:22;99363.44;;;23.37;82.93
12868;BME280;33517;49.866;8.320;2022-09-14T10:40:19;99349.53;;;23.15;82.51
12868;BME280;33517;49.866;8.320;2022-09-14T10:43:18;99352.88;;;23.61;82.26
12868;BME280;33517;49.866;8.320;2022-09-14T10:46:19;99340.59;;;24.04;82.62
12868;BME280;33517;49.866;8.320;2022-09-14T10:49:22;99344.31;;;24.08;82.08
12868;BME280;33517;49.866;8.320;2022-09-14T10:52:22;99350.84;;;23.87;82.99
12868;BME280;33517;49.866;8.320;2022-09-14T10:55:26;99340.03;;;24.07;83.06
12868;BME280;33517;49.866;8.320;2022-09-14T10:58:32;99330.09;;;24.07;82.27
12868;BME280;33517;49.866;8.320;2022-09-14T11:01:36;99342.59;;;23.78;82.38
12868;BME280;33517;49.866;8.320;2022-09-14T11:04:48;99343.44;;;23.68;82.67
12868;BME280;33517;49.866;8.320;2022-09-14T11:07:51;99345.03;;;23.69;82.77
12868;BME280;33517;49.866;8.320;2022-09-14T11:10:56;99335.09;;;23.75;82.73
12868;BME280;33517;49.866;8.320;2022-09-14T11:14:03;99341.38;;;23.99;82.75
12868;BME280;33517;49.866;8.320;2022-09-14T11:17:08;99337.81;;;24.14;82.42
12868;BME280;33517;49.866;8.320;2022-09-14T11:20:07;99340.31;;;24.44;82.10
12868;BME280;33517;49.866;8.320;2022-09-14T11:23:16;99340.41;;;24.62;81.25
12868;BME280;33517;49.866;8.320;2022-09-14T11:26:15;99344.47;;;24.60;81.09
12868;BME280;33517;49.866;8.320;2022-09-14T11:29:16;99331.69;;;25.04;80.75
12868;BME280;33517;49.866;8.320;2022-09-14T11:32:11;99324.59;;;25.61;79.12
12868;BME280;33517;49.866;8.320;2022-09-14T11:35:12;99324.63;;;26.35;78.32
12868;BME280;33517;49.866;8.320;2022-09-14T11:38:11;99329.88;;;26.26;78.19
12868;BME280;33517;49.866;8.320;2022-09-14T11:41:15;99325.03;;;26.05;78.02
12868;BME280;33517;49.866;8.320;2022-09-14T11:44:12;99321.63;;;25.81;78.07
12868;BME280;33517;49.866;8.320;2022-09-14T11:47:07;99314.03;;;25.64;79.96
12868;BME280;33517;49.866;8.320;2022-09-14T11:50:14;99318.91;;;25.62;79.26
12868;BME280;33517;49.866;8.320;2022-09-14T11:53:11;99310.44;;;25.50;79.80
12868;BME280;33517;49.866;8.320;2022-09-14T11:56:03;99311.94;;;25.37;79.25
12868;BME280;33517;49.866;8.320;2022-09-14T11:58:58;99307.97;;;25.06;79.60
12868;BME280;33517;49.866;8.320;2022-09-14T12:01:50;99313.22;;;24.64;80.04
12868;BME280;33517;49.866;8.320;2022-09-14T12:11:34;99292.66;;;24.49;80.74
12868;BME280;33517;49.866;8.320;2022-09-14T12:14:31;99286.78;;;24.42;80.39
12868;BME280;33517;49.866;8.320;2022-09-14T12:17:27;99274.94;;;24.43;80.83
12868;BME280;33517;49.866;8.320;2022-09-14T12:20:40;99273.38;;;24.37;80.97
12868;BME280;33517;49.866;8.320;2022-09-14T12:23:54;99257.03;;;24.29;81.53
12868;BME280;33517;49.866;8.320;2022-09-14T12:26:49;99253.75;;;24.37;81.38
12868;BME280;33517;49.866;8.320;2022-09-14T12:29:41;99244.97;;;24.55;81.49
12868;BME280;33517;49.866;8.320;2022-09-14T12:32:41;99265.88;;;24.63;81.09
12868;BME280;33517;49.866;8.320;2022-09-14T12:35:44;99274.38;;;24.75;80.67
12868;BME280;33517;49.866;8.320;2022-09-14T12:39:04;99288.25;;;24.87;80.68
12868;BME280;33517;49.866;8.320;2022-09-14T12:42:25;99291.56;;;24.79;80.95
12868;BME280;33517;49.866;8.320;2022-09-14T12:45:46;99300.00;;;24.67;82.16
12868;BME280;33517;49.866;8.320;2022-09-14T12:48:53;99287.16;;;24.88;81.31
12868;BME280;33517;49.866;8.320;2022-09-14T12:51:48;99284.22;;;24.90;80.71
12868;BME280;33517;49.866;8.320;2022-09-14T12:54:50;99278.69;;;24.76;81.34
12868;BME280;33517;49.866;8.320;2022-09-14T12:57:51;99271.13;;;24.49;81.77
12868;BME280;33517;49.866;8.320;2022-09-14T13:00:51;99286.34;;;24.30;82.25
12868;BME280;33517;49.866;8.320;2022-09-14T13:03:50;99283.66;;;24.30;82.82
12868;BME280;33517;49.866;8.320;2022-09-14T13:06:44;99275.69;;;24.49;82.67
12868;BME280;33517;49.866;8.320;2022-09-14T13:09:36;99283.34;;;24.65;82.44
12868;BME280;33517;49.866;8.320;2022-09-14T13:12:32;99276.88;;;24.66;82.67
12868;BME280;33517;49.866;8.320;2022-09-14T13:15:30;99265.47;;;24.51;82.87
12868;BME280;33517;49.866;8.320;2022-09-14T13:18:28;99262.34;;;24.39;83.14
12868;BME280;33517;49.866;8.320;2022-09-14T13:21:22;99252.66;;;24.09;83.91
12868;BME280;33517;49.866;8.320;2022-09-14T13:24:35;99251.41;;;23.92;84.62
12868;BME280;33517;49.866;8.320;2022-09-14T13:27:30;99240.25;;;23.74;85.15
12868;BME280;33517;49.866;8.320;2022-09-14T13:30:26;99231.94;;;23.71;85.10
12868;BME280;33517;49.866;8.320;2022-09-14T13:33:19;99236.56;;;23.60;85.69
12868;BME280;33517;49.866;8.320;2022-09-14T13:36:15;99241.16;;;23.55;86.05
12868;BME280;33517;49.866;8.320;2022-09-14T13:39:17;99239.31;;;23.50;86.31
12868;BME280;33517;49.866;8.320;2022-09-14T13:42:13;99231.81;;;23.47;86.46
12868;BME280;33517;49.866;8.320;2022-09-14T13:45:06;99232.91;;;23.46;86.72
12868;BME280;33517;49.866;8.320;2022-09-14T13:47:59;99236.56;;;23.60;86.63
12868;BME280;33517;49.866;8.320;2022-09-14T13:50:52;99226.69;;;23.90;86.12
12868;BME280;33517;49.866;8.320;2022-09-14T13:53:46;99222.44;;;24.17;85.73
12868;BME280;33517;49.866;8.320;2022-09-14T13:56:38;99218.88;;;24.27;85.53
12868;BME280;33517;49.866;8.320;2022-09-14T13:59:30;99217.81;;;24.28;85.55
12868;BME280;33517;49.866;8.320;2022-09-14T14:02:22;99214.88;;;24.24;85.92
12868;BME280;33517;49.866;8.320;2022-09-14T14:05:22;99210.19;;;24.35;85.71
12868;BME280;33517;49.866;8.320;2022-09-14T14:08:26;99206.84;;;24.48;85.30
12868;BME280;33517;49.866;8.320;2022-09-14T14:11:25;99215.16;;;24.51;85.45
12868;BME280;33517;49.866;8.320;2022-09-14T14:14:20;99221.28;;;24.57;85.27
12868;BME280;33517;49.866;8.320;2022-09-14T14:17:22;99208.69;;;24.52;85.11
12868;BME280;33517;49.866;8.320;2022-09-14T14:20:30;99208.34;;;24.59;85.29
12868;BME280;33517;49.866;8.320;2022-09-14T14:23:23;99207.25;;;24.60;85.61
12868;BME280;33517;49.866;8.320;2022-09-14T14:26:20;99207.63;;;24.48;85.85
12868;BME280;33517;49.866;8.320;2022-09-14T14:29:13;99197.34;;;24.32;86.45
12868;BME280;33517;49.866;8.320;2022-09-14T14:32:07;99191.34;;;24.11;87.22
12868;BME280;33517;49.866;8.320;2022-09-14T14:35:03;99188.25;;;23.89;88.48
12868;BME280;33517;49.866;8.320;2022-09-14T14:37:56;99172.66;;;23.91;88.39
12868;BME280;33517;49.866;8.320;2022-09-14T14:40:50;99168.91;;;23.92;87.50
12868;BME280;33517;49.866;8.320;2022-09-14T14:43:44;99156.13;;;24.08;87.65
12868;BME280;33517;49.866;8.320;2022-09-14T14:46:36;99150.38;;;24.19;86.51
12868;BME280;33517;49.866;8.320;2022-09-14T14:49:28;99147.47;;;24.16;86.49
12868;BME280;33517;49.866;8.320;2022-09-14T14:52:20;99148.47;;;24.25;86.17
12868;BME280;33517;49.866;8.320;2022-09-14T14:55:12;99137.47;;;24.21;86.00
12868;BME280;33517;49.866;8.320;2022-09-14T14:58:09;99125.16;;;24.39;86.14
12868;BME280;33517;49.866;8.320;2022-09-14T15:01:04;99120.50;;;24.49;85.27
12868;BME280;33517;49.866;8.320;2022-09-14T15:03:56;99138.16;;;24.55;84.94
12868;BME280;33517;49.866;8.320;2022-09-14T15:06:48;99124.44;;;24.57;84.71
12868;BME280;33517;49.866;8.320;2022-09-14T15:09:40;99137.41;;;24.50;84.21
12868;BME280;33517;49.866;8.320;2022-09-14T15:12:33;99130.03;;;24.37;84.13
12868;BME280;33517;49.866;8.320;2022-09-14T15:15:26;99140.91;;;24.27;84.28
12868;BME280;33517;49.866;8.320;2022-09-14T15:18:19;99132.44;;;24.15;83.25
12868;BME280;33517;49.866;8.320;2022-09-14T15:21:11;99129.94;;;23.90;81.88
12868;BME280;33517;49.866;8.320;2022-09-14T15:24:03;99134.66;;;23.74;81.64
12868;BME280;33517;49.866;8.320;2022-09-14T15:26:55;99128.94;;;23.52;81.38
12868;BME280;33517;49.866;8.320;2022-09-14T15:29:47;99138.91;;;23.46;81.96
12868;BME280;33517;49.866;8.320;2022-09-14T15:32:40;99138.63;;;23.48;82.07